sensor_id;sensor_type;location;lat;lon;timestamp;pressure;altitude;pressure_sealevel;temperature;humidity
64025;BME280;50266;57.446;26.936;2023-08-06T00:00:31;98691.48;;;17.88;100.0
64025;BME280;50266;57.446;26.936;2023-08-06T00:01:31;98689.08;;;17.86;100.0
64025;BME280;50266;57.446;26.936;2023-08-06T00:02:31;98687.14;;;17.87;100.0
64025;BME280;50266;57.446;26.936;2023-08-06T00:03:31;98686.22;;;17.87;100.0
64025;BME280;50266;57.446;26.936;2023-08-06T00:04:31;98691.26;;;17.86;100.0
64025;BME280;50266;57.446;26.936;2023-08-06T00:05:31;98686.47;;;17.87;100.0
64025;BME280;50266;57.446;26.936;2023-08-06T00:06:31;98684.7;;;17.84;100.0
64025;BME280;50266;57.446;26.936;2023-08-06T00:07:31;98682.44;;;17.83;100.0
64025;BME280;50266;57.446;26.936;2023-08-06T00:08:31;98680.25;;;17.85;100.0
64025;BME280;50266;57.446;26.936;2023-08-06T00:09:31;98677.73;;;17.87;100.0
64025;BME280;50266;57.446;26.936;2023-08-06T00:10:31;98681.23;;;17.89;100.0
64025;BME280;50266;57.446;26.936;2023-08-06T00:11:31;98678.29;;;17.89;100.0
64025;BME280;50266;57.446;26.936;2023-08-06T00:12:31;98678.66;;;17.85;100.0
64025;BME280;50266;57.446;26.936;2023-08-06T00:13:31;98678.41;;;17.85;100.0
64025;BME280;50266;57.446;26.936;2023-08-06T00:14:31;98677.73;;;17.86;100.0
64025;BME280;50266;57.446;26.936;2023-08-06T00:15:31;98674.88;;;17.87;100.0
64025;BME280;50266;57.446;26.936;2023-08-06T00:16:31;98675.35;;;17.91;100.0
64025;BME280;50266;57.446;26.936;2023-08-06T00:17:31;98675.02;;;17.89;100.0
64025;BME280;50266;57.446;26.936;2023-08-06T00:18:31;98674.42;;;17.9;100.0
64025;BME280;50266;57.446;26.936;2023-08-06T00:19:32;98673.0;;;17.92;100.0
64025;BME280;50266;57.446;26.936;2023-08-06T00:20:32;98678.97;;;17.94;100.0
64025;BME280;50266;57.446;26.936;2023-08-06T00:21:32;98681.06;;;17.94;100.0
64025;BME280;50266;57.446;26.936;2023-08-06T00:22:32;98679.47;;;17.92;100.0
64025;BME280;50266;57.446;26.936;2023-08-06T00:23:32;98679.22;;;17.92;100.0
64025;BME280;50266;57.446;26.936;2023-08-06T00:24:32;98675.35;;;17.93;100.0
64025;BME280;50266;57.446;26.936;2023-08-06T00:25:32;98680.98;;;17.9;100.0
64025;BME280;50266;57.446;26.936;2023-08-06T00:26:32;98676.28;;;17.9;100.0
64025;BME280;50266;57.446;26.936;2023-08-06T00:27:32;98679.3;;;17.91;100.0
64025;BME280;50266;57.446;26.936;2023-08-06T00:28:32;98674.52;;;17.9;100.0
64025;BME280;50266;57.446;26.936;2023-08-06T00:29:32;98666.95;;;17.9;100.0
64025;BME280;50266;57.446;26.936;2023-08-06T00:30:32;98668.55;;;17.9;100.0
64025;BME280;50266;57.446;26.936;2023-08-06T00:31:32;98667.28;;;17.9;100.0
64025;BME280;50266;57.446;26.936;2023-08-06T00:32:32;98661.58;;;17.9;100.0
64025;BME280;50266;57.446;26.936;2023-08-06T00:33:32;98658.88;;;17.9;100.0
64025;BME280;50266;57.446;26.936;2023-08-06T00:34:32;98656.7;;;17.91;100.0
64025;BME280;50266;57.446;26.936;2023-08-06T00:35:32;98661.23;;;17.89;100.0
64025;BME280;50266;57.446;26.936;2023-08-06T00:36:37;98659.81;;;17.88;100.0
64025;BME280;50266;57.446;26.936;2023-08-06T00:37:34;98657.45;;;17.9;100.0
64025;BME280;50266;57.446;26.936;2023-08-06T00:38:34;98654.94;;;17.88;100.0
64025;BME280;50266;57.446;26.936;2023-08-06T00:39:34;98654.34;;;17.9;100.0
64025;BME280;50266;57.446;26.936;2023-08-06T00:40:34;98653.09;;;17.89;100.0
64025;BME280;50266;57.446;26.936;2023-08-06T00:41:34;98651.99;;;17.88;100.0
64025;BME280;50266;57.446;26.936;2023-08-06T00:42:34;98652.16;;;17.88;100.0
64025;BME280;50266;57.446;26.936;2023-08-06T00:43:34;98651.61;;;17.87;100.0
64025;BME280;50266;57.446;26.936;2023-08-06T00:44:34;98652.92;;;17.88;100.0
64025;BME280;50266;57.446;26.936;2023-08-06T00:45:34;98653.51;;;17.91;100.0
64025;BME280;50266;57.446;26.936;2023-08-06T00:46:34;98651.99;;;17.89;100.0
64025;BME280;50266;57.446;26.936;2023-08-06T00:47:34;98650.23;;;17.88;100.0
64025;BME280;50266;57.446;26.936;2023-08-06T00:48:34;98646.91;;;17.87;100.0
64025;BME280;50266;57.446;26.936;2023-08-06T00:49:35;98642.2;;;17.85;100.0
64025;BME280;50266;57.446;26.936;2023-08-06T00:50:34;98639.84;;;17.85;100.0
64025;BME280;50266;57.446;26.936;2023-08-06T00:51:34;98640.43;;;17.85;100.0
64025;BME280;50266;57.446;26.936;2023-08-06T00:52:34;98639.51;;;17.85;100.0
64025;BME280;50266;57.446;26.936;2023-08-06T00:53:34;98638.16;;;17.84;100.0
64025;BME280;50266;57.446;26.936;2023-08-06T00:54:34;98643.45;;;17.84;100.0
64025;BME280;50266;57.446;26.936;2023-08-06T00:55:34;98648.83;;;17.85;100.0
64025;BME280;50266;57.446;26.936;2023-08-06T00:56:34;98648.75;;;17.85;100.0
64025;BME280;50266;57.446;26.936;2023-08-06T00:57:35;98650.59;;;17.86;100.0
64025;BME280;50266;57.446;26.936;2023-08-06T00:58:35;98650.48;;;17.9;100.0
64025;BME280;50266;57.446;26.936;2023-08-06T00:59:35;98648.3;;;17.89;100.0
64025;BME280;50266;57.446;26.936;2023-08-06T01:00:35;98643.96;;;17.87;100.0
64025;BME280;50266;57.446;26.936;2023-08-06T01:01:35;98655.36;;;17.89;100.0
64025;BME280;50266;57.446;26.936;2023-08-06T01:02:35;98654.09;;;17.89;100.0
64025;BME280;50266;57.446;26.936;2023-08-06T01:03:35;98663.37;;;17.87;100.0
64025;BME280;50266;57.446;26.936;2023-08-06T01:04:35;98665.27;;;17.88;100.0
64025;BME280;50266;57.446;26.936;2023-08-06T01:05:35;98664.17;;;17.92;100.0
64025;BME280;50266;57.446;26.936;2023-08-06T01:06:38;98660.31;;;17.92;100.0
64025;BME280;50266;57.446;26.936;2023-08-06T01:09:42;98658.47;;;17.94;100.0
64025;BME280;50266;57.446;26.936;2023-08-06T01:11:53;98656.78;;;17.92;100.0
64025;BME280;50266;57.446;26.936;2023-08-06T01:12:51;98657.8;;;17.93;100.0
64025;BME280;50266;57.446;26.936;2023-08-06T01:13:49;98653.93;;;17.94;100.0
64025;BME280;50266;57.446;26.936;2023-08-06T01:14:58;98655.19;;;17.94;100.0
64025;BME280;50266;57.446;26.936;2023-08-06T01:15:53;98653.42;;;17.97;100.0
64025;BME280;50266;57.446;26.936;2023-08-06T01:16:51;98655.02;;;17.96;100.0
64025;BME280;50266;57.446;26.936;2023-08-06T01:17:51;98655.95;;;17.99;100.0
64025;BME280;50266;57.446;26.936;2023-08-06T01:18:51;98658.39;;;18.04;100.0
64025;BME280;50266;57.446;26.936;2023-08-06T01:19:51;98660.15;;;18.0;100.0
64025;BME280;50266;57.446;26.936;2023-08-06T01:20:51;98657.97;;;18.02;100.0
64025;BME280;50266;57.446;26.936;2023-08-06T01:21:51;98665.7;;;18.07;100.0
64025;BME280;50266;57.446;26.936;2023-08-06T01:22:51;98668.98;;;18.06;100.0
64025;BME280;50266;57.446;26.936;2023-08-06T01:23:51;98665.11;;;18.03;100.0
64025;BME280;50266;57.446;26.936;2023-08-06T01:24:51;98660.99;;;18.02;100.0
64025;BME280;50266;57.446;26.936;2023-08-06T01:25:56;98652.17;;;18.02;100.0
64025;BME280;50266;57.446;26.936;2023-08-06T01:27:13;98643.01;;;18.0;100.0
64025;BME280;50266;57.446;26.936;2023-08-06T01:28:05;98648.47;;;17.99;100.0
64025;BME280;50266;57.446;26.936;2023-08-06T01:29:07;98652.08;;;17.96;100.0
64025;BME280;50266;57.446;26.936;2023-08-06T01:30:09;98655.95;;;17.97;100.0
64025;BME280;50266;57.446;26.936;2023-08-06T01:31:10;98655.02;;;17.97;100.0
64025;BME280;50266;57.446;26.936;2023-08-06T01:32:11;98656.45;;;18.0;100.0
64025;BME280;50266;57.446;26.936;2023-08-06T01:33:13;98653.77;;;18.02;100.0
64025;BME280;50266;57.446;26.936;2023-08-06T01:34:13;98648.72;;;18.02;100.0
64025;BME280;50266;57.446;26.936;2023-08-06T01:35:14;98641.66;;;17.99;100.0
64025;BME280;50266;57.446;26.936;2023-08-06T01:36:15;98643.94;;;18.0;100.0
64025;BME280;50266;57.446;26.936;2023-08-06T01:37:13;98638.72;;;17.99;100.0
64025;BME280;50266;57.446;26.936;2023-08-06T01:38:13;98635.28;;;18.0;100.0
64025;BME280;50266;57.446;26.936;2023-08-06T01:39:13;98634.94;;;17.99;100.0
64025;BME280;50266;57.446;26.936;2023-08-06T01:40:13;98630.66;;;18.0;100.0
64025;BME280;50266;57.446;26.936;2023-08-06T01:41:13;98631.25;;;18.0;100.0
64025;BME280;50266;57.446;26.936;2023-08-06T01:42:13;98629.98;;;18.0;100.0
64025;BME280;50266;57.446;26.936;2023-08-06T01:43:13;98636.03;;;18.01;100.0
64025;BME280;50266;57.446;26.936;2023-08-06T01:44:14;98635.45;;;18.03;100.0
64025;BME280;50266;57.446;26.936;2023-08-06T01:45:14;98633.59;;;18.06;100.0
64025;BME280;50266;57.446;26.936;2023-08-06T01:46:14;98636.03;;;18.07;100.0
64025;BME280;50266;57.446;26.936;2023-08-06T01:47:14;98632.5;;;18.05;100.0
64025;BME280;50266;57.446;26.936;2023-08-06T01:48:14;98631.46;;;18.09;100.0
64025;BME280;50266;57.446;26.936;2023-08-06T01:49:14;98630.32;;;18.07;100.0
64025;BME280;50266;57.446;26.936;2023-08-06T01:50:14;98633.94;;;18.06;100.0
64025;BME280;50266;57.446;26.936;2023-08-06T01:51:14;98630.23;;;18.05;100.0
64025;BME280;50266;57.446;26.936;2023-08-06T01:52:14;98630.99;;;18.07;100.0
64025;BME280;50266;57.446;26.936;2023-08-06T01:53:14;98631.66;;;18.06;100.0
64025;BME280;50266;57.446;26.936;2023-08-06T01:54:14;98634.15;;;18.13;100.0
64025;BME280;50266;57.446;26.936;2023-08-06T01:55:14;98636.0;;;18.11;100.0
64025;BME280;50266;57.446;26.936;2023-08-06T01:56:14;98631.21;;;18.09;100.0
64025;BME280;50266;57.446;26.936;2023-08-06T01:57:14;98635.41;;;18.12;100.0
64025;BME280;50266;57.446;26.936;2023-08-06T01:58:14;98636.59;;;18.12;100.0
64025;BME280;50266;57.446;26.936;2023-08-06T01:59:14;98641.21;;;18.13;100.0
64025;BME280;50266;57.446;26.936;2023-08-06T02:00:14;98641.88;;;18.16;100.0
64025;BME280;50266;57.446;26.936;2023-08-06T02:01:14;98644.66;;;18.14;100.0
64025;BME280;50266;57.446;26.936;2023-08-06T02:02:14;98639.78;;;18.15;100.0
64025;BME280;50266;57.446;26.936;2023-08-06T02:03:14;98635.83;;;18.13;100.0
64025;BME280;50266;57.446;26.936;2023-08-06T02:04:14;98639.78;;;18.1;100.0
64025;BME280;50266;57.446;26.936;2023-08-06T02:05:14;98640.95;;;18.11;100.0
64025;BME280;50266;57.446;26.936;2023-08-06T02:06:14;98636.25;;;18.11;100.0
64025;BME280;50266;57.446;26.936;2023-08-06T02:07:14;98633.9;;;18.11;100.0
64025;BME280;50266;57.446;26.936;2023-08-06T02:08:14;98629.53;;;18.11;100.0
64025;BME280;50266;57.446;26.936;2023-08-06T02:09:14;98630.53;;;18.12;100.0
64025;BME280;50266;57.446;26.936;2023-08-06T02:10:14;98626.67;;;18.16;100.0
64025;BME280;50266;57.446;26.936;2023-08-06T02:11:14;98628.59;;;18.16;100.0
64025;BME280;50266;57.446;26.936;2023-08-06T02:12:14;98628.34;;;18.17;100.0
64025;BME280;50266;57.446;26.936;2023-08-06T02:13:14;98629.53;;;18.15;100.0
64025;BME280;50266;57.446;26.936;2023-08-06T02:14:14;98628.52;;;18.14;100.0
64025;BME280;50266;57.446;26.936;2023-08-06T02:15:14;98628.77;;;18.16;100.0
64025;BME280;50266;57.446;26.936;2023-08-06T02:16:14;98630.28;;;18.16;100.0
64025;BME280;50266;57.446;26.936;2023-08-06T02:17:14;98626.58;;;18.19;100.0
64025;BME280;50266;57.446;26.936;2023-08-06T02:18:14;98626.33;;;18.18;100.0
64025;BME280;50266;57.446;26.936;2023-08-06T02:19:14;98618.34;;;18.19;100.0
64025;BME280;50266;57.446;26.936;2023-08-06T02:20:14;98615.91;;;18.17;100.0
64025;BME280;50266;57.446;26.936;2023-08-06T02:21:14;98610.45;;;18.18;100.0
64025;BME280;50266;57.446;26.936;2023-08-06T02:22:14;98610.19;;;18.2;100.0
64025;BME280;50266;57.446;26.936;2023-08-06T02:23:14;98604.06;;;18.17;100.0
64025;BME280;50266;57.446;26.936;2023-08-06T02:24:14;98604.56;;;18.2;100.0
64025;BME280;50266;57.446;26.936;2023-08-06T02:25:14;98598.93;;;18.16;100.0
64025;BME280;50266;57.446;26.936;2023-08-06T02:26:14;98596.16;;;18.16;100.0
64025;BME280;50266;57.446;26.936;2023-08-06T02:27:14;98595.41;;;18.13;100.0
64025;BME280;50266;57.446;26.936;2023-08-06T02:28:14;98591.2;;;18.16;100.0
64025;BME280;50266;57.446;26.936;2023-08-06T02:29:14;98587.16;;;18.16;100.0
64025;BME280;50266;57.446;26.936;2023-08-06T02:30:14;98586.48;;;18.18;100.0
64025;BME280;50266;57.446;26.936;2023-08-06T02:31:14;98575.15;;;18.15;100.0
64025;BME280;50266;57.446;26.936;2023-08-06T02:32:14;98574.47;;;18.15;100.0
64025;BME280;50266;57.446;26.936;2023-08-06T02:33:14;98571.53;;;18.14;100.0
64025;BME280;50266;57.446;26.936;2023-08-06T02:34:14;98570.36;;;18.13;100.0
64025;BME280;50266;57.446;26.936;2023-08-06T02:35:14;98568.59;;;18.13;100.0
64025;BME280;50266;57.446;26.936;2023-08-06T02:36:14;98566.08;;;18.14;100.0
64025;BME280;50266;57.446;26.936;2023-08-06T02:37:14;98557.42;;;18.15;100.0
64025;BME280;50266;57.446;26.936;2023-08-06T02:38:14;98551.7;;;18.16;100.0
64025;BME280;50266;57.446;26.936;2023-08-06T02:39:14;98546.16;;;18.13;100.0
64025;BME280;50266;57.446;26.936;2023-08-06T02:40:14;98541.88;;;18.14;100.0
64025;BME280;50266;57.446;26.936;2023-08-06T02:41:14;98534.81;;;18.15;100.0
64025;BME280;50266;57.446;26.936;2023-08-06T02:42:14;98530.61;;;18.12;100.0
64025;BME280;50266;57.446;26.936;2023-08-06T02:43:14;98524.39;;;18.13;100.0
64025;BME280;50266;57.446;26.936;2023-08-06T02:44:14;98517.59;;;18.13;100.0
64025;BME280;50266;57.446;26.936;2023-08-06T02:45:14;98515.48;;;18.11;100.0
64025;BME280;50266;57.446;26.936;2023-08-06T02:46:15;98518.34;;;18.13;100.0
64025;BME280;50266;57.446;26.936;2023-08-06T02:47:15;98510.19;;;18.14;100.0
64025;BME280;50266;57.446;26.936;2023-08-06T02:48:15;98504.81;;;18.13;100.0
64025;BME280;50266;57.446;26.936;2023-08-06T02:49:15;98500.27;;;18.14;100.0
64025;BME280;50266;57.446;26.936;2023-08-06T02:50:15;98509.44;;;18.13;100.0
64025;BME280;50266;57.446;26.936;2023-08-06T02:51:15;98505.98;;;18.14;100.0
64025;BME280;50266;57.446;26.936;2023-08-06T02:52:15;98498.5;;;18.16;100.0
64025;BME280;50266;57.446;26.936;2023-08-06T02:53:15;98497.91;;;18.16;100.0
64025;BME280;50266;57.446;26.936;2023-08-06T02:54:15;98494.64;;;18.15;100.0
64025;BME280;50266;57.446;26.936;2023-08-06T02:55:15;98494.12;;;18.16;100.0
64025;BME280;50266;57.446;26.936;2023-08-06T02:56:15;98495.47;;;18.18;100.0
64025;BME280;50266;57.446;26.936;2023-08-06T02:57:15;98497.48;;;18.17;100.0
64025;BME280;50266;57.446;26.936;2023-08-06T02:58:15;98493.62;;;18.16;100.0
64025;BME280;50266;57.446;26.936;2023-08-06T02:59:15;98489.33;;;18.18;100.0
64025;BME280;50266;57.446;26.936;2023-08-06T03:00:15;98489.41;;;18.2;100.0
64025;BME280;50266;57.446;26.936;2023-08-06T03:01:15;98488.23;;;18.19;100.0
64025;BME280;50266;57.446;26.936;2023-08-06T03:02:15;98488.06;;;18.19;100.0
64025;BME280;50266;57.446;26.936;2023-08-06T03:03:15;98502.52;;;18.19;100.0
64025;BME280;50266;57.446;26.936;2023-08-06T03:04:15;98497.81;;;18.22;100.0
64025;BME280;50266;57.446;26.936;2023-08-06T03:05:15;98497.81;;;18.22;100.0
64025;BME280;50266;57.446;26.936;2023-08-06T03:06:15;98499.24;;;18.21;100.0
64025;BME280;50266;57.446;26.936;2023-08-06T03:07:15;98502.59;;;18.23;100.0
64025;BME280;50266;57.446;26.936;2023-08-06T03:08:15;98509.91;;;18.25;100.0
64025;BME280;50266;57.446;26.936;2023-08-06T03:09:15;98513.77;;;18.27;100.0
64025;BME280;50266;57.446;26.936;2023-08-06T03:10:15;98516.28;;;18.26;100.0
64025;BME280;50266;57.446;26.936;2023-08-06T03:11:15;98515.88;;;18.25;100.0
64025;BME280;50266;57.446;26.936;2023-08-06T03:12:15;98512.59;;;18.26;100.0
64025;BME280;50266;57.446;26.936;2023-08-06T03:13:16;98509.48;;;18.26;100.0
64025;BME280;50266;57.446;26.936;2023-08-06T03:14:15;98504.68;;;18.29;100.0
64025;BME280;50266;57.446;26.936;2023-08-06T03:15:15;98495.35;;;18.28;100.0
64025;BME280;50266;57.446;26.936;2023-08-06T03:16:15;98491.48;;;18.27;100.0
64025;BME280;50266;57.446;26.936;2023-08-06T03:17:15;98490.89;;;18.28;100.0
64025;BME280;50266;57.446;26.936;2023-08-06T03:18:15;98495.09;;;18.29;100.0
64025;BME280;50266;57.446;26.936;2023-08-06T03:19:15;98502.38;;;18.3;100.0
64025;BME280;50266;57.446;26.936;2023-08-06T03:20:15;98500.69;;;18.31;100.0
64025;BME280;50266;57.446;26.936;2023-08-06T03:21:15;98498.33;;;18.32;100.0
64025;BME280;50266;57.446;26.936;2023-08-06T03:22:15;98497.83;;;18.31;100.0
64025;BME280;50266;57.446;26.936;2023-08-06T03:23:15;98502.44;;;18.35;100.0
64025;BME280;50266;57.446;26.936;2023-08-06T03:24:15;98501.59;;;18.37;100.0
64025;BME280;50266;57.446;26.936;2023-08-06T03:25:15;98496.54;;;18.39;100.0
64025;BME280;50266;57.446;26.936;2023-08-06T03:26:15;98502.84;;;18.37;100.0
64025;BME280;50266;57.446;26.936;2023-08-06T03:27:15;98502.94;;;18.37;100.0
64025;BME280;50266;57.446;26.936;2023-08-06T03:28:15;98507.3;;;18.39;100.0
64025;BME280;50266;57.446;26.936;2023-08-06T03:29:15;98509.98;;;18.4;100.0
64025;BME280;50266;57.446;26.936;2023-08-06T03:30:15;98512.25;;;18.42;100.0
64025;BME280;50266;57.446;26.936;2023-08-06T03:31:15;98507.62;;;18.42;100.0
64025;BME280;50266;57.446;26.936;2023-08-06T03:32:15;98497.11;;;18.43;100.0
64025;BME280;50266;57.446;26.936;2023-08-06T03:33:15;98494.59;;;18.45;100.0
64025;BME280;50266;57.446;26.936;2023-08-06T03:34:15;98487.42;;;18.47;100.0
64025;BME280;50266;57.446;26.936;2023-08-06T03:35:15;98485.16;;;18.46;100.0
64025;BME280;50266;57.446;26.936;2023-08-06T03:36:15;98488.77;;;18.47;100.0
64025;BME280;50266;57.446;26.936;2023-08-06T03:37:15;98485.99;;;18.48;100.0
64025;BME280;50266;57.446;26.936;2023-08-06T03:38:15;98487.62;;;18.52;100.0
64025;BME280;50266;57.446;26.936;2023-08-06T03:39:15;98490.73;;;18.52;100.0
64025;BME280;50266;57.446;26.936;2023-08-06T03:40:15;98487.87;;;18.54;100.0
64025;BME280;50266;57.446;26.936;2023-08-06T03:41:15;98488.37;;;18.54;100.0
64025;BME280;50266;57.446;26.936;2023-08-06T03:42:15;98491.14;;;18.56;100.0
64025;BME280;50266;57.446;26.936;2023-08-06T03:43:15;98488.69;;;18.58;100.0
64025;BME280;50266;57.446;26.936;2023-08-06T03:44:15;98499.81;;;18.61;100.0
64025;BME280;50266;57.446;26.936;2023-08-06T03:45:15;98497.44;;;18.64;100.0
64025;BME280;50266;57.446;26.936;2023-08-06T03:46:15;98499.78;;;18.67;100.0
64025;BME280;50266;57.446;26.936;2023-08-06T03:47:15;98503.66;;;18.67;100.0
64025;BME280;50266;57.446;26.936;2023-08-06T03:48:15;98514.16;;;18.67;100.0
64025;BME280;50266;57.446;26.936;2023-08-06T03:49:15;98524.66;;;18.7;100.0
64025;BME280;50266;57.446;26.936;2023-08-06T03:50:15;98529.08;;;18.71;100.0
64025;BME280;50266;57.446;26.936;2023-08-06T03:51:16;98533.37;;;18.72;100.0
64025;BME280;50266;57.446;26.936;2023-08-06T03:52:15;98536.53;;;18.67;100.0
64025;BME280;50266;57.446;26.936;2023-08-06T03:53:16;98544.02;;;18.69;100.0
64025;BME280;50266;57.446;26.936;2023-08-06T03:54:16;98547.3;;;18.68;100.0
64025;BME280;50266;57.446;26.936;2023-08-06T03:55:16;98547.3;;;18.68;100.0
64025;BME280;50266;57.446;26.936;2023-08-06T03:56:16;98543.51;;;18.69;100.0
64025;BME280;50266;57.446;26.936;2023-08-06T03:57:16;98539.98;;;18.67;100.0
64025;BME280;50266;57.446;26.936;2023-08-06T03:58:16;98546.2;;;18.7;100.0
64025;BME280;50266;57.446;26.936;2023-08-06T03:59:16;98548.3;;;18.69;100.0
64025;BME280;50266;57.446;26.936;2023-08-06T04:00:16;98550.95;;;18.73;100.0
64025;BME280;50266;57.446;26.936;2023-08-06T04:01:16;98552.53;;;18.76;100.0
64025;BME280;50266;57.446;26.936;2023-08-06T04:02:16;98557.06;;;18.79;100.0
64025;BME280;50266;57.446;26.936;2023-08-06T04:03:16;98566.22;;;18.81;100.0
64025;BME280;50266;57.446;26.936;2023-08-06T04:04:16;98570.33;;;18.83;100.0
64025;BME280;50266;57.446;26.936;2023-08-06T04:05:16;98573.29;;;18.81;100.0
64025;BME280;50266;57.446;26.936;2023-08-06T04:06:16;98571.01;;;18.83;100.0
64025;BME280;50266;57.446;26.936;2023-08-06T04:07:16;98570.09;;;18.82;100.0
64025;BME280;50266;57.446;26.936;2023-08-06T04:08:16;98564.68;;;18.86;100.0
64025;BME280;50266;57.446;26.936;2023-08-06T04:09:16;98565.18;;;18.88;100.0
64025;BME280;50266;57.446;26.936;2023-08-06T04:10:16;98560.47;;;18.87;100.0
64025;BME280;50266;57.446;26.936;2023-08-06T04:11:16;98554.52;;;18.94;100.0
64025;BME280;50266;57.446;26.936;2023-08-06T04:12:16;98551.56;;;18.96;100.0
64025;BME280;50266;57.446;26.936;2023-08-06T04:13:16;98547.53;;;18.94;100.0
64025;BME280;50266;57.446;26.936;2023-08-06T04:14:16;98538.12;;;18.92;100.0
64025;BME280;50266;57.446;26.936;2023-08-06T04:15:16;98531.59;;;18.9;100.0
64025;BME280;50266;57.446;26.936;2023-08-06T04:16:16;98528.91;;;18.88;100.0
64025;BME280;50266;57.446;26.936;2023-08-06T04:17:16;98524.72;;;18.95;100.0
64025;BME280;50266;57.446;26.936;2023-08-06T04:18:16;98521.64;;;19.03;100.0
64025;BME280;50266;57.446;26.936;2023-08-06T04:19:16;98508.59;;;19.13;100.0
64025;BME280;50266;57.446;26.936;2023-08-06T04:20:16;98504.33;;;19.12;100.0
64025;BME280;50266;57.446;26.936;2023-08-06T04:21:16;98497.52;;;19.11;100.0
64025;BME280;50266;57.446;26.936;2023-08-06T04:22:16;98485.0;;;19.15;100.0
64025;BME280;50266;57.446;26.936;2023-08-06T04:23:16;98476.73;;;19.18;100.0
64025;BME280;50266;57.446;26.936;2023-08-06T04:24:16;98469.78;;;19.13;100.0
64025;BME280;50266;57.446;26.936;2023-08-06T04:25:16;98465.53;;;19.18;100.0
64025;BME280;50266;57.446;26.936;2023-08-06T04:26:16;98458.84;;;19.13;100.0
64025;BME280;50266;57.446;26.936;2023-08-06T04:27:17;98456.23;;;19.14;100.0
64025;BME280;50266;57.446;26.936;2023-08-06T04:28:16;98451.2;;;19.2;100.0
64025;BME280;50266;57.446;26.936;2023-08-06T04:29:16;98449.22;;;19.17;100.0
64025;BME280;50266;57.446;26.936;2023-08-06T04:30:16;98454.67;;;19.12;100.0
64025;BME280;50266;57.446;26.936;2023-08-06T04:31:16;98459.74;;;19.09;100.0
64025;BME280;50266;57.446;26.936;2023-08-06T04:32:16;98466.66;;;19.08;100.0
64025;BME280;50266;57.446;26.936;2023-08-06T04:33:16;98472.28;;;19.1;100.0
64025;BME280;50266;57.446;26.936;2023-08-06T04:34:16;98470.68;;;19.1;100.0
64025;BME280;50266;57.446;26.936;2023-08-06T04:35:16;98475.59;;;19.14;100.0
64025;BME280;50266;57.446;26.936;2023-08-06T04:36:16;98477.77;;;19.15;100.0
64025;BME280;50266;57.446;26.936;2023-08-06T04:37:16;98482.31;;;19.15;100.0
64025;BME280;50266;57.446;26.936;2023-08-06T04:38:16;98489.56;;;19.14;100.0
64025;BME280;50266;57.446;26.936;2023-08-06T04:39:16;98495.66;;;19.21;100.0
64025;BME280;50266;57.446;26.936;2023-08-06T04:40:16;98499.14;;;19.28;100.0
64025;BME280;50266;57.446;26.936;2023-08-06T04:41:16;98504.13;;;19.24;100.0
64025;BME280;50266;57.446;26.936;2023-08-06T04:42:16;98508.2;;;19.19;100.0
64025;BME280;50266;57.446;26.936;2023-08-06T04:43:16;98516.3;;;19.36;100.0
64025;BME280;50266;57.446;26.936;2023-08-06T04:44:16;98523.02;;;19.33;100.0
64025;BME280;50266;57.446;26.936;2023-08-06T04:45:16;98523.73;;;19.44;100.0
64025;BME280;50266;57.446;26.936;2023-08-06T04:46:16;98520.89;;;19.42;100.0
64025;BME280;50266;57.446;26.936;2023-08-06T04:47:16;98525.02;;;19.42;100.0
64025;BME280;50266;57.446;26.936;2023-08-06T04:48:16;98523.49;;;19.44;100.0
64025;BME280;50266;57.446;26.936;2023-08-06T04:49:17;98522.94;;;19.5;100.0
64025;BME280;50266;57.446;26.936;2023-08-06T04:50:16;98520.94;;;19.57;100.0
64025;BME280;50266;57.446;26.936;2023-08-06T04:51:16;98520.66;;;19.6;100.0
64025;BME280;50266;57.446;26.936;2023-08-06T04:52:16;98523.75;;;19.64;100.0
64025;BME280;50266;57.446;26.936;2023-08-06T04:53:16;98523.17;;;19.72;100.0
64025;BME280;50266;57.446;26.936;2023-08-06T04:54:16;98517.59;;;19.8;100.0
64025;BME280;50266;57.446;26.936;2023-08-06T04:55:16;98516.35;;;19.71;100.0
64025;BME280;50266;57.446;26.936;2023-08-06T04:56:16;98516.47;;;19.67;100.0
64025;BME280;50266;57.446;26.936;2023-08-06T04:57:16;98515.33;;;19.64;100.0
64025;BME280;50266;57.446;26.936;2023-08-06T04:58:16;98516.98;;;19.68;100.0
64025;BME280;50266;57.446;26.936;2023-08-06T04:59:16;98513.47;;;19.73;100.0
64025;BME280;50266;57.446;26.936;2023-08-06T05:00:16;98519.29;;;19.73;100.0
64025;BME280;50266;57.446;26.936;2023-08-06T05:01:16;98516.66;;;19.81;100.0
64025;BME280;50266;57.446;26.936;2023-08-06T05:02:16;98519.66;;;19.69;100.0
64025;BME280;50266;57.446;26.936;2023-08-06T05:03:16;98520.73;;;19.62;100.0
64025;BME280;50266;57.446;26.936;2023-08-06T05:04:16;98520.47;;;19.72;100.0
64025;BME280;50266;57.446;26.936;2023-08-06T05:05:16;98520.68;;;19.68;100.0
64025;BME280;50266;57.446;26.936;2023-08-06T05:06:16;98527.48;;;19.69;100.0
64025;BME280;50266;57.446;26.936;2023-08-06T05:07:16;98527.91;;;19.85;100.0
64025;BME280;50266;57.446;26.936;2023-08-06T05:08:17;98525.16;;;19.9;100.0
64025;BME280;50266;57.446;26.936;2023-08-06T05:09:17;98521.67;;;20.0;100.0
64025;BME280;50266;57.446;26.936;2023-08-06T05:10:17;98524.78;;;19.86;100.0
64025;BME280;50266;57.446;26.936;2023-08-06T05:11:17;98518.53;;;19.87;100.0
64025;BME280;50266;57.446;26.936;2023-08-06T05:12:17;98518.16;;;19.82;100.0
64025;BME280;50266;57.446;26.936;2023-08-06T05:13:17;98519.59;;;19.9;100.0
64025;BME280;50266;57.446;26.936;2023-08-06T05:14:17;98512.59;;;19.83;100.0
64025;BME280;50266;57.446;26.936;2023-08-06T05:15:17;98510.52;;;19.87;100.0
64025;BME280;50266;57.446;26.936;2023-08-06T05:16:17;98506.27;;;19.97;100.0
64025;BME280;50266;57.446;26.936;2023-08-06T05:17:17;98499.43;;;19.84;100.0
64025;BME280;50266;57.446;26.936;2023-08-06T05:18:17;98497.98;;;19.86;100.0